createdAt,value
2018-09-20T00:01:25.199Z,18.30
2018-09-20T00:03:53.300Z,18.30
2018-09-20T00:06:21.462Z,18.20
2018-09-20T00:08:49.596Z,18.20
2018-09-20T00:11:17.778Z,18.20
2018-09-20T00:13:45.898Z,18.20
2018-09-20T00:16:14.013Z,18.20
2018-09-20T00:18:42.160Z,18.10
2018-09-20T00:22:39.539Z,18.00
2018-09-20T00:25:07.644Z,18.00
2018-09-20T00:27:35.930Z,17.90
2018-09-20T00:30:04.136Z,17.90
2018-09-20T00:32:32.274Z,17.80
2018-09-20T00:35:00.388Z,17.80
2018-09-20T00:37:28.526Z,17.70
2018-09-20T00:39:56.657Z,17.70
2018-09-20T00:42:24.833Z,17.70
2018-09-20T00:44:53.078Z,17.70
2018-09-20T00:47:21.165Z,17.70
2018-09-20T00:49:49.487Z,17.70
2018-09-20T00:52:17.634Z,17.70
2018-09-20T00:54:45.881Z,17.70
2018-09-20T00:57:13.947Z,17.60
2018-09-20T00:59:42.031Z,17.60
2018-09-20T01:02:10.157Z,17.60
2018-09-20T01:04:38.258Z,17.50
2018-09-20T01:07:06.331Z,17.50
2018-09-20T01:09:34.434Z,17.50
2018-09-20T01:12:02.645Z,17.50
2018-09-20T01:14:30.785Z,17.40
2018-09-20T01:16:58.975Z,17.50
2018-09-20T01:19:27.175Z,17.50
2018-09-20T01:21:55.362Z,17.50
2018-09-20T01:24:23.449Z,17.40
2018-09-20T01:26:51.601Z,17.40
2018-09-20T01:29:19.749Z,17.40
2018-09-20T01:31:47.952Z,17.40
2018-09-20T01:34:16.069Z,17.40
2018-09-20T01:36:44.264Z,17.30
2018-09-20T01:39:14.384Z,17.30
2018-09-20T01:41:42.764Z,17.20
2018-09-20T01:44:11.545Z,17.20
2018-09-20T01:46:39.702Z,17.20
2018-09-20T01:49:08.473Z,17.10
2018-09-20T01:51:36.732Z,17.10
2018-09-20T01:54:04.820Z,17.10
2018-09-20T01:56:32.887Z,17.20
2018-09-20T01:59:01.017Z,17.20
2018-09-20T02:01:29.085Z,17.20
2018-09-20T02:03:57.316Z,17.30
2018-09-20T02:06:25.442Z,17.20
2018-09-20T02:08:53.613Z,17.30
2018-09-20T02:11:21.772Z,17.20
2018-09-20T02:13:49.927Z,17.20
2018-09-20T02:16:18.044Z,17.20
2018-09-20T02:18:46.248Z,17.30
2018-09-20T02:21:14.592Z,17.30
2018-09-20T02:23:42.735Z,17.20
2018-09-20T02:26:10.846Z,17.20
2018-09-20T02:28:39.026Z,17.20
2018-09-20T02:31:07.160Z,17.20
2018-09-20T02:33:35.395Z,17.20
2018-09-20T02:36:03.475Z,17.10
2018-09-20T02:38:31.613Z,17.10
2018-09-20T02:40:59.794Z,17.10
2018-09-20T02:43:27.944Z,17.10
2018-09-20T02:45:56.079Z,17.00
2018-09-20T02:48:24.164Z,17.00
2018-09-20T02:50:52.268Z,16.90
2018-09-20T02:53:20.395Z,16.90
2018-09-20T02:55:48.530Z,17.00
2018-09-20T02:58:16.680Z,17.00
2018-09-20T03:00:44.865Z,17.00
2018-09-20T03:03:13.055Z,16.90
2018-09-20T03:05:41.241Z,16.90
2018-09-20T03:08:09.414Z,16.90
2018-09-20T03:10:37.521Z,16.90
2018-09-20T03:13:05.694Z,16.90
2018-09-20T03:15:33.834Z,16.90
2018-09-20T03:18:01.994Z,16.90
2018-09-20T03:20:30.213Z,16.90
2018-09-20T03:22:58.319Z,16.80
2018-09-20T03:25:26.560Z,16.80
2018-09-20T03:27:54.721Z,16.80
2018-09-20T03:30:23.385Z,16.70
2018-09-20T03:32:51.470Z,16.80
2018-09-20T03:35:19.564Z,16.80
2018-09-20T03:37:47.760Z,16.80
2018-09-20T03:40:15.851Z,16.80
2018-09-20T03:42:44.043Z,16.80
2018-09-20T03:45:12.195Z,16.70
2018-09-20T03:47:40.337Z,16.70
2018-09-20T03:50:08.593Z,16.70
2018-09-20T03:52:36.829Z,16.60
2018-09-20T03:55:05.408Z,16.60
2018-09-20T03:57:33.789Z,16.70
2018-09-20T04:00:01.941Z,16.70
2018-09-20T04:02:30.059Z,16.60
2018-09-20T04:04:58.242Z,16.70
2018-09-20T04:07:26.396Z,16.70
2018-09-20T04:09:54.571Z,16.60
2018-09-20T04:12:22.727Z,16.60
2018-09-20T04:14:50.780Z,16.60
2018-09-20T04:17:18.944Z,16.70
2018-09-20T04:19:47.080Z,16.60
2018-09-20T04:22:15.244Z,16.60
2018-09-20T04:24:43.372Z,16.50
2018-09-20T04:27:11.476Z,16.50
2018-09-20T04:29:39.607Z,16.50
2018-09-20T04:32:07.814Z,16.60
2018-09-20T04:34:35.930Z,16.60
2018-09-20T04:37:04.092Z,16.60
2018-09-20T04:39:32.349Z,16.70
2018-09-20T04:42:00.561Z,16.60
2018-09-20T04:44:28.805Z,16.60
2018-09-20T04:46:56.962Z,16.60
2018-09-20T04:49:25.113Z,16.60
2018-09-20T04:51:53.281Z,16.60
2018-09-20T04:54:21.511Z,16.60
2018-09-20T04:56:49.590Z,16.60
2018-09-20T04:59:17.823Z,16.50
2018-09-20T05:01:45.956Z,16.50
2018-09-20T05:04:14.137Z,16.50
2018-09-20T05:06:42.303Z,16.50
2018-09-20T05:09:12.808Z,16.50
2018-09-20T05:11:41.467Z,16.50
2018-09-20T05:14:09.965Z,16.60
2018-09-20T05:16:38.500Z,16.60
2018-09-20T05:19:06.714Z,16.60
2018-09-20T05:21:34.834Z,16.60
2018-09-20T05:24:03.146Z,16.70
2018-09-20T05:26:31.341Z,16.70
2018-09-20T05:28:59.539Z,16.80
2018-09-20T05:31:27.646Z,16.80
2018-09-20T05:33:55.858Z,16.90
2018-09-20T05:36:24.050Z,16.90
2018-09-20T05:38:52.225Z,17.00
2018-09-20T05:41:20.377Z,17.00
2018-09-20T05:43:48.579Z,17.00
2018-09-20T05:46:16.685Z,17.10
2018-09-20T05:48:44.933Z,17.10
2018-09-20T05:51:13.039Z,17.20
2018-09-20T05:53:41.251Z,17.20
2018-09-20T05:56:09.411Z,17.30
2018-09-20T05:58:37.666Z,17.30
2018-09-20T06:01:06.029Z,17.40
2018-09-20T06:03:34.286Z,17.40
2018-09-20T06:06:02.435Z,17.50
2018-09-20T06:08:30.575Z,17.60
2018-09-20T06:10:58.788Z,17.60
2018-09-20T06:13:26.969Z,17.70
2018-09-20T06:15:55.089Z,17.80
2018-09-20T06:18:23.247Z,17.80
2018-09-20T06:20:51.441Z,17.90
2018-09-20T06:23:19.816Z,18.00
2018-09-20T06:25:48.056Z,18.10
2018-09-20T06:28:16.206Z,18.10
2018-09-20T06:30:44.353Z,18.20
2018-09-20T06:33:12.581Z,18.30
2018-09-20T06:35:40.676Z,18.50
2018-09-20T06:38:08.945Z,18.50
2018-09-20T06:40:37.220Z,18.70
2018-09-20T06:43:05.422Z,18.70
2018-09-20T06:45:33.572Z,18.80
2018-09-20T06:48:01.787Z,18.90
2018-09-20T06:50:30.460Z,19.10
2018-09-20T06:52:58.556Z,19.20
2018-09-20T06:55:26.684Z,19.30
2018-09-20T06:57:54.856Z,19.50
2018-09-20T07:00:23.048Z,19.50
2018-09-20T07:02:51.349Z,19.60
2018-09-20T07:05:19.493Z,19.80
2018-09-20T07:07:47.758Z,19.90
2018-09-20T07:10:16.022Z,20.00
2018-09-20T07:12:44.264Z,20.00
2018-09-20T07:15:12.409Z,20.10
2018-09-20T07:17:40.617Z,20.30
2018-09-20T07:20:08.765Z,20.40
2018-09-20T07:22:36.971Z,20.50
2018-09-20T07:25:05.084Z,20.60
2018-09-20T07:27:33.241Z,20.70
2018-09-20T07:30:01.376Z,20.90
2018-09-20T07:32:29.532Z,21.00
2018-09-20T07:34:57.694Z,21.10
2018-09-20T07:37:26.027Z,21.30
2018-09-20T07:39:54.164Z,21.40
2018-09-20T07:42:22.340Z,21.50
2018-09-20T07:44:50.524Z,21.60
2018-09-20T07:47:18.667Z,21.70
2018-09-20T07:49:46.829Z,21.90
2018-09-20T07:52:15.102Z,22.20
2018-09-20T07:54:43.410Z,22.20
2018-09-20T07:57:11.663Z,22.20
2018-09-20T07:59:39.883Z,22.40
2018-09-20T08:02:08.149Z,22.80
2018-09-20T08:04:36.164Z,22.90
2018-09-20T08:07:04.344Z,23.10
2018-09-20T08:09:32.531Z,23.20
2018-09-20T08:12:30.299Z,23.30
2018-09-20T08:14:58.494Z,23.50
2018-09-20T08:17:26.700Z,23.70
2018-09-20T08:19:54.881Z,24.10
2018-09-20T08:22:22.995Z,24.50
2018-09-20T08:24:51.209Z,25.90
2018-09-20T08:27:19.357Z,27.00
2018-09-20T08:29:47.637Z,28.30
2018-09-20T08:32:15.809Z,28.60
2018-09-20T08:34:44.057Z,28.20
2018-09-20T08:37:12.217Z,29.60
2018-09-20T08:39:40.384Z,30.10
2018-09-20T08:42:08.568Z,30.20
2018-09-20T08:51:36.924Z,29.60
2018-09-20T08:54:05.123Z,30.50
2018-09-20T08:56:33.353Z,31.20
2018-09-20T08:59:01.419Z,31.70
2018-09-20T09:01:29.630Z,32.00
2018-09-20T09:03:57.900Z,32.00
2018-09-20T09:06:26.184Z,31.60
2018-09-20T09:08:54.323Z,31.80
2018-09-20T09:11:22.476Z,32.00
2018-09-20T09:13:50.582Z,32.70
2018-09-20T09:16:18.846Z,33.10
2018-09-20T09:18:46.953Z,32.80
2018-09-20T09:21:15.140Z,32.50
2018-09-20T09:23:43.293Z,31.10
2018-09-20T09:26:11.480Z,30.00
2018-09-20T09:28:39.785Z,29.20
2018-09-20T09:31:07.904Z,30.00
2018-09-20T09:33:36.145Z,32.20
2018-09-20T09:36:04.300Z,32.80
2018-09-20T09:38:32.460Z,33.60
2018-09-20T09:41:00.603Z,34.00
2018-09-20T09:43:29.340Z,33.90
2018-09-20T09:45:57.465Z,34.40
2018-09-20T09:48:25.600Z,33.90
2018-09-20T09:50:53.720Z,34.10
2018-09-20T09:53:21.918Z,35.10
2018-09-20T09:55:50.165Z,35.20
2018-09-20T09:58:18.313Z,35.60
2018-09-20T10:00:46.514Z,34.00
2018-09-20T10:03:14.707Z,33.80
2018-09-20T10:05:42.875Z,34.10
2018-09-20T10:08:11.020Z,33.20
2018-09-20T10:10:39.178Z,32.70
2018-09-20T10:13:07.402Z,32.60
2018-09-20T10:15:35.522Z,33.80
2018-09-20T10:18:03.690Z,33.60
2018-09-20T10:20:31.927Z,33.70
2018-09-20T10:23:00.056Z,32.50
2018-09-20T10:25:28.238Z,32.60
2018-09-20T10:27:56.452Z,31.70
2018-09-20T10:30:24.574Z,31.70
2018-09-20T10:32:52.732Z,32.30
2018-09-20T10:35:20.911Z,33.10
2018-09-20T10:37:49.162Z,33.70
2018-09-20T10:40:17.424Z,33.40
2018-09-20T10:42:45.564Z,33.30
2018-09-20T10:45:13.775Z,33.10
2018-09-20T10:47:41.904Z,32.50
2018-09-20T10:50:10.271Z,33.70
2018-09-20T10:52:38.556Z,34.10
2018-09-20T10:55:06.756Z,34.50
2018-09-20T10:57:34.880Z,35.00
2018-09-20T11:00:03.045Z,34.40
2018-09-20T11:02:31.282Z,32.60
2018-09-20T11:04:59.409Z,31.30
2018-09-20T11:07:27.651Z,32.60
2018-09-20T11:09:55.791Z,33.90
2018-09-20T11:12:23.973Z,34.10
2018-09-20T11:14:52.186Z,33.40
2018-09-20T11:17:20.422Z,34.60
2018-09-20T11:19:48.637Z,35.70
2018-09-20T11:22:16.869Z,36.10
2018-09-20T11:24:45.066Z,36.00
2018-09-20T11:27:13.195Z,35.70
2018-09-20T11:29:41.400Z,35.20
2018-09-20T11:32:09.547Z,35.30
2018-09-20T11:34:37.700Z,35.20
2018-09-20T11:37:05.947Z,34.70
2018-09-20T11:39:34.093Z,34.30
2018-09-20T11:42:02.254Z,34.00
2018-09-20T11:44:30.384Z,34.00
2018-09-20T11:46:58.599Z,34.30
2018-09-20T11:49:26.753Z,34.60
2018-09-20T11:51:54.929Z,34.10
2018-09-20T11:54:23.144Z,34.40
2018-09-20T11:56:51.314Z,35.20
2018-09-20T11:59:19.560Z,35.10
2018-09-20T12:01:47.769Z,33.60
2018-09-20T12:04:16.011Z,34.40
2018-09-20T12:06:44.283Z,35.10
2018-09-20T12:09:12.428Z,35.20
2018-09-20T12:11:40.612Z,34.40
2018-09-20T12:14:08.894Z,34.60
2018-09-20T12:16:37.180Z,34.30
2018-09-20T12:19:05.517Z,33.80
2018-09-20T12:21:33.718Z,34.70
2018-09-20T12:24:01.949Z,33.90
2018-09-20T12:26:30.109Z,33.40
2018-09-20T12:28:58.322Z,34.30
2018-09-20T12:31:26.478Z,34.80
2018-09-20T12:33:54.650Z,33.80
2018-09-20T12:36:23.118Z,33.40
2018-09-20T12:38:51.357Z,32.60
2018-09-20T12:41:19.529Z,31.90
2018-09-20T12:43:47.713Z,32.10
2018-09-20T12:46:15.944Z,33.00
2018-09-20T12:48:44.102Z,33.70
2018-09-20T12:51:12.241Z,33.20
2018-09-20T12:53:40.453Z,32.20
2018-09-20T12:56:08.651Z,31.90
2018-09-20T12:58:41.202Z,31.90
2018-09-20T13:01:09.533Z,32.40
2018-09-20T13:03:37.609Z,33.20
2018-09-20T13:06:05.796Z,33.10
2018-09-20T13:08:34.001Z,32.50
2018-09-20T13:11:02.221Z,32.40
2018-09-20T13:13:30.455Z,32.80
2018-09-20T13:15:58.641Z,33.70
2018-09-20T13:18:26.815Z,34.80
2018-09-20T13:20:55.279Z,33.20
2018-09-20T13:23:23.414Z,32.70
2018-09-20T13:25:51.581Z,32.60
2018-09-20T13:28:19.762Z,32.90
2018-09-20T13:30:47.977Z,33.60
2018-09-20T13:33:16.180Z,34.90
2018-09-20T13:35:44.373Z,36.30
2018-09-20T13:38:12.618Z,36.10
2018-09-20T13:40:40.882Z,35.10
2018-09-20T13:43:09.145Z,34.70
2018-09-20T13:45:37.322Z,33.70
2018-09-20T13:48:05.619Z,34.00
2018-09-20T13:50:33.852Z,34.20
2018-09-20T13:53:02.155Z,33.90
2018-09-20T13:55:30.396Z,34.00
2018-09-20T13:57:58.715Z,32.40
2018-09-20T14:00:27.234Z,31.60
2018-09-20T14:02:55.434Z,31.90
2018-09-20T14:05:23.996Z,33.00
2018-09-20T14:07:52.101Z,33.90
2018-09-20T14:10:20.292Z,33.60
2018-09-20T14:12:48.445Z,32.80
2018-09-20T14:15:16.706Z,32.50
2018-09-20T14:17:45.026Z,32.80
2018-09-20T14:20:13.218Z,33.20
2018-09-20T14:22:41.364Z,33.20
2018-09-20T14:25:09.524Z,33.20
2018-09-20T14:27:37.720Z,33.90
2018-09-20T14:30:05.893Z,34.40
2018-09-20T14:32:34.124Z,34.90
2018-09-20T14:35:02.409Z,35.30
2018-09-20T14:37:30.669Z,35.50
2018-09-20T14:39:58.829Z,35.90
2018-09-20T14:42:26.967Z,34.40
2018-09-20T14:44:55.149Z,34.10
2018-09-20T14:47:23.370Z,33.30
2018-09-20T14:49:51.585Z,32.50
2018-09-20T14:52:19.715Z,32.90
2018-09-20T14:54:47.849Z,32.80
2018-09-20T14:57:15.975Z,32.70
2018-09-20T14:59:44.209Z,32.50
2018-09-20T15:02:12.340Z,32.80
2018-09-20T15:04:40.512Z,33.50
2018-09-20T15:07:08.703Z,33.90
2018-09-20T15:09:36.859Z,34.40
2018-09-20T15:12:05.125Z,34.50
2018-09-20T15:14:33.327Z,33.80
2018-09-20T15:17:01.564Z,33.40
2018-09-20T15:19:29.710Z,32.90
2018-09-20T15:21:57.932Z,32.50
2018-09-20T15:24:26.071Z,32.60
2018-09-20T15:26:54.476Z,32.60
2018-09-20T15:29:22.736Z,33.00
2018-09-20T15:31:50.925Z,33.00
2018-09-20T15:34:19.145Z,32.90
2018-09-20T15:36:47.356Z,32.20
2018-09-20T15:39:15.489Z,32.30
2018-09-20T15:41:43.673Z,32.60
2018-09-20T15:44:11.904Z,32.40
2018-09-20T15:46:40.148Z,32.10
2018-09-20T15:49:08.349Z,32.00
2018-09-20T15:51:36.594Z,31.80
2018-09-20T15:54:04.664Z,31.50
2018-09-20T15:56:32.765Z,31.40
2018-09-20T15:59:00.869Z,31.40
2018-09-20T16:01:29.057Z,31.20
2018-09-20T16:03:57.196Z,31.00
2018-09-20T16:06:25.415Z,31.10
2018-09-20T16:08:53.573Z,31.20
2018-09-20T16:11:21.637Z,31.10
2018-09-20T16:13:49.720Z,31.10
2018-09-20T16:16:17.906Z,30.70
2018-09-20T16:18:46.102Z,30.60
2018-09-20T16:21:14.889Z,30.50
2018-09-20T16:23:43.136Z,30.20
2018-09-20T16:26:11.128Z,30.10
2018-09-20T16:28:52.131Z,29.80
2018-09-20T16:37:58.033Z,29.70
2018-09-20T16:40:28.696Z,29.60
2018-09-20T16:42:56.898Z,29.00
2018-09-20T16:45:25.056Z,28.90
2018-09-20T16:47:53.306Z,28.70
2018-09-20T16:50:21.506Z,28.50
2018-09-20T16:52:49.645Z,28.30
2018-09-20T16:55:17.768Z,28.30
2018-09-20T16:57:45.866Z,28.20
2018-09-20T17:00:14.013Z,28.10
2018-09-20T17:02:42.452Z,28.00
2018-09-20T17:05:11.141Z,27.80
2018-09-20T17:07:39.266Z,27.70
2018-09-20T17:10:07.365Z,27.40
2018-09-20T17:12:35.720Z,27.30
2018-09-20T17:15:04.014Z,27.10
2018-09-20T17:17:32.087Z,26.90
2018-09-20T17:20:00.644Z,26.60
2018-09-20T17:22:28.809Z,26.60
2018-09-20T17:24:56.867Z,26.50
2018-09-20T17:27:25.371Z,26.30
2018-09-20T17:29:53.608Z,26.20
2018-09-20T17:32:21.842Z,26.10
2018-09-20T17:34:50.105Z,26.00
2018-09-20T17:37:19.544Z,25.80
2018-09-20T17:39:49.552Z,25.80
2018-09-20T17:42:18.152Z,25.60
2018-09-20T17:44:46.233Z,25.50
2018-09-20T17:47:14.427Z,25.30
2018-09-20T17:49:42.626Z,25.50
2018-09-20T17:52:11.221Z,25.50
2018-09-20T17:54:39.798Z,25.50
2018-09-20T17:57:08.695Z,25.50
2018-09-20T17:59:36.880Z,25.50
2018-09-20T18:02:04.943Z,25.50
2018-09-20T18:04:33.251Z,25.50
2018-09-20T18:07:01.369Z,25.50
2018-09-20T18:09:29.540Z,25.40
2018-09-20T18:11:57.758Z,25.30
2018-09-20T18:14:25.973Z,25.20
2018-09-20T18:16:54.295Z,25.10
2018-09-20T18:19:22.629Z,25.10
2018-09-20T18:21:51.147Z,25.10
2018-09-20T18:24:19.339Z,25.00
2018-09-20T18:26:47.675Z,25.10
2018-09-20T18:29:15.885Z,24.90
2018-09-20T18:31:44.165Z,24.90
2018-09-20T18:34:12.409Z,24.90
2018-09-20T18:36:40.676Z,24.90
2018-09-20T18:39:10.615Z,24.80
2018-09-20T18:41:38.760Z,24.60
2018-09-20T18:44:07.392Z,24.50
2018-09-20T18:46:35.545Z,24.40
2018-09-20T18:49:03.717Z,24.30
2018-09-20T18:51:31.995Z,24.20
2018-09-20T18:54:00.147Z,24.10
2018-09-20T18:56:28.527Z,24.00
2018-09-20T18:58:56.836Z,24.00
2018-09-20T19:01:25.114Z,23.90
2018-09-20T19:03:53.427Z,23.90
2018-09-20T19:06:21.620Z,23.80
2018-09-20T19:08:49.848Z,23.70
2018-09-20T19:11:18.125Z,23.60
2018-09-20T19:13:46.305Z,23.50
2018-09-20T19:16:14.461Z,23.50
2018-09-20T19:18:42.793Z,23.60
2018-09-20T19:21:10.961Z,23.60
2018-09-20T19:23:39.064Z,23.70
2018-09-20T19:26:07.237Z,23.60
2018-09-20T19:28:35.412Z,23.40
2018-09-20T19:31:03.672Z,23.20
2018-09-20T19:33:31.777Z,23.00
2018-09-20T19:36:00.049Z,22.90
2018-09-20T19:38:28.350Z,22.70
2018-09-20T19:40:56.608Z,22.60
2018-09-20T19:43:24.814Z,22.50
2018-09-20T19:45:52.988Z,22.40
2018-09-20T19:48:21.118Z,22.40
2018-09-20T19:50:49.295Z,22.40
2018-09-20T19:53:17.555Z,22.30
2018-09-20T19:55:45.759Z,22.20
2018-09-20T19:58:13.953Z,22.10
2018-09-20T20:00:42.150Z,22.20
2018-09-20T20:03:10.332Z,22.20
2018-09-20T20:05:38.489Z,22.20
2018-09-20T20:08:06.658Z,22.10
2018-09-20T20:10:34.887Z,22.00
2018-09-20T20:13:03.145Z,21.90
2018-09-20T20:15:31.306Z,21.80
2018-09-20T20:17:59.379Z,21.70
2018-09-20T20:20:27.432Z,21.60
2018-09-20T20:22:55.558Z,21.60
2018-09-20T20:25:23.670Z,21.60
2018-09-20T20:27:51.800Z,21.50
2018-09-20T20:30:19.902Z,21.40
2018-09-20T20:32:47.984Z,21.40
2018-09-20T20:35:16.065Z,21.30
2018-09-20T20:37:50.504Z,21.20
2018-09-20T20:40:18.791Z,21.10
2018-09-20T20:42:46.905Z,21.10
2018-09-20T20:45:15.422Z,21.10
2018-09-20T20:47:43.605Z,20.90
2018-09-20T20:50:11.668Z,20.80
2018-09-20T20:52:39.810Z,20.70
2018-09-20T20:55:07.894Z,20.70
2018-09-20T20:57:36.146Z,20.70
2018-09-20T21:00:04.253Z,20.60
2018-09-20T21:02:32.341Z,20.60
2018-09-20T21:05:00.457Z,20.60
2018-09-20T21:07:28.661Z,20.50
2018-09-20T21:09:56.847Z,20.30
2018-09-20T21:12:25.020Z,20.30
2018-09-20T21:14:53.144Z,20.30
2018-09-20T21:17:21.366Z,20.40
2018-09-20T21:19:49.616Z,20.30
2018-09-20T21:23:47.209Z,20.30
2018-09-20T21:26:15.462Z,20.30
2018-09-20T21:28:43.629Z,20.30
2018-09-20T21:31:11.807Z,20.30
2018-09-20T21:33:39.977Z,20.30
2018-09-20T21:36:08.178Z,20.30
2018-09-20T21:38:36.336Z,20.20
2018-09-20T21:41:04.545Z,20.20
2018-09-20T21:43:33.097Z,20.20
2018-09-20T21:46:01.330Z,20.10
2018-09-20T21:48:29.440Z,20.00
2018-09-20T21:50:57.673Z,20.00
2018-09-20T21:53:25.821Z,20.00
2018-09-20T21:55:54.040Z,20.10
2018-09-20T21:58:22.169Z,20.10
2018-09-20T22:00:52.999Z,20.10
2018-09-20T22:03:21.211Z,20.10
2018-09-20T22:05:49.304Z,20.10
2018-09-20T22:08:17.394Z,20.00
2018-09-20T22:10:45.623Z,20.00
2018-09-20T22:13:13.761Z,20.00
2018-09-20T22:15:41.877Z,19.90
2018-09-20T22:18:09.997Z,19.80
2018-09-20T22:20:38.287Z,19.90
2018-09-20T22:23:06.461Z,19.80
2018-09-20T22:25:34.674Z,19.80
2018-09-20T22:28:02.793Z,19.70
2018-09-20T22:30:30.993Z,19.60
2018-09-20T22:32:59.134Z,19.50
2018-09-20T22:35:27.284Z,19.60
2018-09-20T22:37:55.405Z,19.40
2018-09-20T22:40:23.569Z,19.30
2018-09-20T22:42:51.726Z,19.30
2018-09-20T22:45:19.923Z,19.20
2018-09-20T22:47:48.123Z,19.30
2018-09-20T22:50:16.224Z,19.20
2018-09-20T22:52:44.332Z,19.20
2018-09-20T22:55:12.511Z,19.20
2018-09-20T22:57:40.644Z,19.30
2018-09-20T23:00:08.818Z,19.30
2018-09-20T23:02:36.980Z,19.40
2018-09-20T23:05:05.283Z,19.50
2018-09-20T23:07:33.438Z,19.50
2018-09-20T23:10:01.570Z,19.40
2018-09-20T23:12:29.790Z,19.40
2018-09-20T23:14:57.905Z,19.40
2018-09-20T23:17:26.120Z,19.40
2018-09-20T23:19:54.257Z,19.30
2018-09-20T23:22:22.400Z,19.30
2018-09-20T23:24:50.505Z,19.30
2018-09-20T23:27:18.686Z,19.40
2018-09-20T23:29:46.853Z,19.60
2018-09-20T23:32:15.033Z,19.60
2018-09-20T23:34:43.410Z,19.60
2018-09-20T23:37:11.519Z,19.60
2018-09-20T23:39:39.644Z,19.60
2018-09-20T23:42:07.840Z,19.60
2018-09-20T23:44:36.002Z,19.60
2018-09-20T23:47:04.072Z,19.50
2018-09-20T23:49:32.349Z,19.50
2018-09-20T23:52:00.578Z,19.50
2018-09-20T23:54:28.715Z,19.40
2018-09-20T23:56:57.007Z,19.40
2018-09-20T23:59:26.205Z,19.30
